Date,TemperatureHighF,TemperatureAvgF,TemperatureLowF,DewpointHighF,DewpointAvgF,DewpointLowF,HumidityHigh,HumidityAvg,HumidityLow,PressureMaxIn,PressureMinIn,WindSpeedMaxMPH,WindSpeedAvgMPH,GustSpeedMaxMPH,PrecipitationSumIn
2013-4-27,65,56,60,50,31,-100,65,52,56,29.91,29.87,8,-114,0,0.00
2013-4-28,77,63,46,55,41,-100,99,57,43,29.93,29.83,14,-68,0,0.00
2013-4-29,86,70,56,66,58,52,88,69,47,29.93,29.77,14,8,0,0.00
2013-4-30,86,75,66,60,56,53,63,53,39,30.03,29.79,21,11,0,0.00
2013-5-1,67,59,39,53,46,-100,94,63,54,30.36,29.90,23,-6,0,0.16
2013-5-2,39,34,34,39,24,-100,99,88,94,29.98,29.89,27,-81,0,0.02
2013-5-3,39,35,34,36,29,-100,99,89,86,29.92,29.82,24,-23,0,0.05
2013-5-4,50,42,34,50,41,33,99,98,93,30.06,29.84,17,10,0,0.07
2013-5-5,55,48,44,52,47,42,99,97,60,30.07,29.99,12,8,0,0.00
2013-5-6,74,57,49,60,54,49,99,89,59,30.03,29.91,12,6,0,0.00
2013-5-7,82,63,47,60,52,46,99,72,33,29.98,29.86,9,2,0,0.00
2013-5-8,75,63,53,59,55,48,86,75,56,29.90,29.79,14,5,0,0.00
2013-5-9,72,62,57,65,60,56,99,94,75,29.86,29.74,16,6,0,0.22
2013-5-10,68,57,50,56,49,-100,99,81,54,29.95,29.87,15,-14,0,0.00
2013-5-11,64,56,44,47,32,25,99,44,25,30.07,29.93,24,12,0,0.00
2013-5-12,72,53,31,40,29,23,99,49,17,30.06,29.89,10,3,0,0.00
2013-5-13,80,64,47,56,44,32,72,50,34,29.90,29.68,14,7,0,0.00
2013-5-14,99,80,61,59,55,47,82,48,20,29.68,29.56,14,6,0,0.00
2013-5-15,89,76,60,68,59,51,96,59,38,29.77,29.65,13,4,0,0.21
2013-5-16,86,74,60,69,64,59,99,73,47,29.83,29.71,14,5,0,0.00
2013-5-17,83,71,59,66,62,58,99,75,50,29.88,29.79,12,6,0,0.01
2013-5-18,86,75,61,69,64,59,98,71,50,29.88,29.67,21,9,0,0.00
2013-5-19,84,70,61,70,60,-100,99,77,54,29.98,29.53,26,-12,0,0.22
2013-5-20,81,69,60,66,61,55,99,78,53,30.01,29.85,14,6,0,0.02
2013-5-21,76,66,58,57,52,47,85,62,42,30.01,29.91,22,8,0,0.08
2013-5-22,66,59,53,52,50,49,86,74,60,30.15,29.97,19,9,0,0.00
2013-5-23,71,60,52,54,50,48,87,72,48,30.36,30.16,16,8,0,0.02
2013-5-24,73,61,47,53,48,44,99,66,36,30.42,30.17,21,10,0,0.01
2013-5-25,86,69,60,67,58,45,86,68,52,30.22,30.00,17,10,0,0.01
2013-5-26,84,74,63,70,66,59,98,78,63,30.05,29.84,16,8,0,0.00
2013-5-27,79,68,60,71,64,59,99,87,72,29.96,29.66,30,14,0,1.97
2013-5-28,82,70,61,75,68,59,99,94,79,29.82,29.65,15,6,0,2.35
2013-5-29,81,73,62,73,67,62,99,84,71,29.82,29.66,21,12,0,0.00
2013-5-30,77,67,62,68,64,61,99,91,68,29.77,29.57,22,9,0,0.44
2013-5-31,82,68,64,68,64,61,99,87,60,29.85,29.70,13,6,0,0.01
2013-6-1,66,62,57,66,56,51,99,82,70,30.07,29.76,18,9,0,0.00
2013-6-2,65,58,49,53,50,47,99,78,56,30.19,30.08,14,7,0,0.00
2013-6-3,74,62,46,56,52,46,99,72,50,30.14,29.95,18,8,0,0.00
2013-6-4,76,66,60,66,60,54,89,81,70,30.04,29.95,21,11,0,0.00
2013-6-5,70,64,58,65,62,58,99,96,85,30.05,29.99,10,4,0,1.10
2013-6-6,75,65,52,59,56,52,99,77,53,30.03,29.97,11,4,0,0.00
2013-6-7,76,63,54,58,54,51,99,75,43,30.07,29.96,15,4,0,0.00
2013-6-8,78,67,54,63,57,51,99,72,50,29.99,29.78,20,8,0,0.62
2013-6-9,70,65,60,66,61,60,99,88,73,29.87,29.80,14,6,0,0.30
2013-6-10,84,70,61,68,63,58,94,79,54,29.95,29.84,10,5,0,0.00
2013-6-11,92,78,68,70,66,63,85,67,42,29.89,29.76,22,7,0,0.00
2013-6-12,95,83,68,73,69,57,80,65,46,30.01,29.78,19,9,0,0.00
2013-6-13,84,71,60,63,59,55,90,68,45,30.13,29.96,17,6,0,0.01
2013-6-14,85,73,62,69,64,60,93,75,56,30.10,29.91,21,9,0,0.00
2013-6-15,79,69,66,72,62,-100,99,83,73,30.02,29.89,19,-20,0,0.34
2013-6-16,84,73,63,73,69,63,99,88,67,29.96,29.89,8,2,0,0.02
2013-6-17,90,76,66,73,68,63,99,79,45,29.96,29.89,7,3,0,0.00
2013-6-18,86,73,63,68,64,58,99,75,46,30.03,29.93,14,3,0,0.19
2013-6-19,85,74,62,68,65,61,99,75,55,30.00,29.88,14,6,0,0.00
2013-6-20,88,79,68,74,70,66,92,74,60,29.95,29.83,21,10,0,0.00
2013-6-21,93,82,76,77,73,70,87,74,56,29.92,29.82,16,9,0,0.00
2013-6-22,92,82,72,76,70,67,89,68,52,29.95,29.79,17,7,0,0.00
2013-6-23,82,75,66,73,69,63,93,83,69,29.94,29.73,22,8,0,0.15
2013-6-24,84,76,72,76,71,69,94,85,67,29.90,29.74,16,6,0,0.87
2013-6-25,88,81,74,76,71,66,84,73,65,29.81,29.70,18,7,0,0.00
2013-6-26,95,83,71,76,72,67,99,71,44,29.90,29.65,14,5,0,0.00
2013-6-27,84,74,65,75,70,65,99,89,69,30.01,29.89,8,2,0,0.05
2013-6-28,87,77,66,69,63,56,99,67,37,29.95,29.84,18,6,0,0.01
2013-6-29,80,70,61,66,60,56,89,69,49,29.94,29.83,18,8,0,0.02
2013-6-30,80,69,58,60,57,52,90,66,48,30.10,29.94,14,6,0,0.00
2013-7-1,84,70,58,57,54,50,79,57,35,30.17,30.07,12,5,0,0.00
2013-7-2,84,70,56,66,57,52,87,66,41,30.15,30.04,7,2,0,0.02
2013-7-3,85,70,55,65,59,51,99,72,42,30.06,29.95,8,2,0,0.00
2013-7-4,86,72,55,64,58,54,99,67,38,30.04,29.91,10,4,0,0.00
2013-7-5,89,76,62,69,62,58,87,63,44,29.98,29.85,11,6,0,0.00
2013-7-6,89,77,66,68,64,60,88,66,47,29.95,29.83,16,6,0,0.00
2013-7-7,92,81,70,73,68,63,89,68,50,29.92,29.86,13,6,0,0.05
2013-7-8,91,81,74,76,70,64,81,69,58,30.00,29.92,11,4,0,0.00
2013-7-9,103,85,74,81,75,68,92,72,48,29.99,29.83,11,3,0,0.01
2013-7-10,90,80,65,77,68,62,97,70,44,30.05,29.87,14,4,0,0.26
2013-7-11,88,74,59,65,62,59,98,68,44,30.08,29.95,9,3,0,0.01
2013-7-12,88,76,64,67,62,58,87,64,46,30.04,29.95,11,6,0,0.00
2013-7-13,85,76,68,73,64,58,73,66,60,30.01,29.93,10,5,0,0.00
2013-7-14,87,76,62,66,62,56,90,64,41,30.12,29.99,11,4,0,0.00
2013-7-15,90,77,65,72,67,60,90,73,53,30.17,30.08,8,3,0,0.00
2013-7-16,100,82,67,75,71,66,99,73,43,30.23,30.15,6,2,0,0.00
2013-7-17,96,83,70,77,72,68,94,72,49,30.28,30.14,7,2,0,0.06
2013-7-18,100,84,69,75,70,67,99,67,40,30.16,29.91,9,2,0,0.01
2013-7-19,100,84,69,77,70,66,89,66,40,29.92,29.78,7,2,0,0.00
2013-7-20,90,77,69,74,68,65,92,75,53,29.89,29.80,7,2,0,0.00
2013-7-21,92,78,68,73,70,67,99,78,52,29.84,29.73,8,2,0,0.00
2013-7-22,94,80,67,77,71,66,99,77,47,29.78,29.68,8,2,0,0.00
2013-7-23,84,74,64,68,64,58,91,73,56,29.92,29.73,10,4,0,0.00
2013-7-24,85,71,55,64,60,54,99,70,42,30.00,29.92,9,2,0,0.00
2013-7-25,85,71,59,71,64,57,94,80,50,30.03,29.95,8,2,0,0.03
2013-7-26,83,73,59,73,64,53,99,77,38,30.03,29.92,11,4,0,1.14
2013-7-27,77,65,52,56,52,49,99,68,38,30.07,29.94,11,3,0,0.00
2013-7-28,84,64,46,58,52,46,99,69,33,30.02,29.96,6,1,0,0.00
2013-7-29,67,63,58,65,61,55,99,94,78,30.04,29.95,9,3,0,1.12
2013-7-30,82,72,66,73,70,65,99,92,73,30.02,29.94,6,2,0,0.35
2013-7-31,83,73,64,71,68,63,99,85,58,30.08,29.97,7,2,0,0.00
2013-8-1,88,75,62,73,68,62,99,80,51,30.05,29.89,5,1,0,0.01
2013-8-2,91,75,65,74,68,61,99,80,54,29.95,29.78,14,3,0,0.15
2013-8-3,87,74,63,70,64,59,93,74,53,30.11,29.92,7,4,0,0.00
2013-8-4,75,70,63,67,62,56,88,76,67,30.11,29.97,8,3,0,0.00
2013-8-5,86,75,65,76,71,64,99,88,68,29.99,29.76,8,2,0,0.00
2013-8-6,90,78,67,78,73,67,99,86,63,29.83,29.73,10,2,0,0.00
2013-8-7,88,78,66,74,68,61,99,77,46,29.93,29.72,9,3,0,0.00
2013-8-8,79,69,62,69,64,61,98,85,64,29.97,29.89,8,2,0,0.01
2013-8-9,84,72,64,71,66,62,99,81,55,30.06,29.94,6,1,0,0.00
2013-8-10,86,73,58,67,62,57,99,74,40,30.15,30.01,6,2,0,0.00
2013-8-11,87,74,58,71,64,58,99,74,49,30.08,29.93,9,2,0,0.00
2013-8-12,84,71,64,76,69,64,99,94,66,29.99,29.90,11,2,0,0.87
2013-8-13,82,70,61,64,61,56,99,78,46,30.10,29.99,7,2,0,0.00
2013-8-14,81,67,54,64,58,53,99,75,41,30.17,30.04,7,2,0,0.00
2013-8-15,71,64,60,64,59,55,98,85,70,30.09,30.00,8,3,0,0.16
2013-8-16,78,67,56,63,59,55,99,78,50,30.13,30.04,6,2,0,0.11
2013-8-17,80,65,51,64,56,-100,99,76,45,30.16,30.04,5,-9,0,0.00
2013-8-18,83,68,53,64,59,52,99,77,48,30.13,30.00,8,2,0,0.00
2013-8-19,85,72,58,69,64,57,99,79,50,30.04,29.93,11,3,0,0.00
2013-8-20,89,76,66,70,66,62,90,72,49,29.98,29.90,10,4,0,0.00
2013-8-21,91,78,67,73,68,65,94,73,51,29.99,29.92,9,4,0,0.00
2013-8-22,90,78,68,76,70,67,99,80,54,30.02,29.95,6,1,0,0.00
2013-8-23,91,78,55,75,69,52,99,77,52,30.04,29.91,9,2,0,0.00
2013-8-24,92,79,69,75,68,-100,94,73,49,30.07,29.99,10,-6,0,0.00
2013-8-25,94,80,69,74,70,66,91,72,48,30.14,30.04,11,4,0,0.00
2013-8-26,96,83,69,74,71,68,99,70,43,30.09,29.97,7,3,0,0.00
2013-8-27,95,82,70,70,68,63,87,66,41,29.97,29.88,8,3,0,0.00
2013-8-28,95,80,65,72,68,64,95,70,39,29.98,29.91,7,1,0,0.01
2013-8-29,96,81,68,76,71,67,99,73,45,29.98,29.86,10,2,0,0.00
2013-8-30,100,83,69,74,69,66,99,67,34,29.87,29.74,8,2,0,0.00
2013-8-31,90,76,69,76,66,-100,99,80,61,29.82,29.72,6,-30,0,0.00
2013-9-1,87,73,62,73,65,58,99,79,44,29.89,29.71,14,4,0,0.10
2013-9-2,84,68,55,62,58,53,99,73,37,30.01,29.89,9,3,0,0.00
2013-9-3,86,67,50,60,55,50,99,71,33,30.06,29.95,6,1,0,0.00
2013-9-4,89,72,56,63,60,55,99,71,38,30.12,29.99,4,1,0,0.00
2013-9-5,90,71,58,66,61,57,99,73,35,30.15,30.05,7,1,0,0.00
2013-9-6,92,73,63,66,55,-100,88,62,40,30.06,29.90,10,-40,0,0.00
2013-9-7,99,82,70,71,66,62,81,61,37,29.92,29.77,12,3,0,0.00
2013-9-8,95,80,72,72,65,-100,90,66,39,29.84,29.74,6,-21,0,0.00
2013-9-9,98,83,70,68,64,60,78,54,30,29.85,29.76,9,3,0,0.00
2013-9-10,97,82,68,67,63,60,75,54,35,29.98,29.85,10,4,0,0.00
2013-9-11,93,79,65,70,65,60,89,64,41,30.03,29.97,9,3,0,0.00
2013-9-12,86,73,56,71,59,47,99,68,29,30.11,30.02,12,4,0,0.39
2013-9-13,79,62,49,53,49,44,99,66,31,30.17,30.02,8,2,0,0.00
2013-9-14,80,64,50,52,48,42,80,57,36,30.07,29.87,9,4,0,0.00
2013-9-15,70,64,59,69,60,51,99,86,59,30.12,29.83,11,4,0,1.02
2013-9-16,64,60,54,59,56,54,99,89,76,30.25,30.13,10,5,0,0.00
2013-9-17,78,65,58,70,62,57,99,92,73,30.14,29.88,10,5,0,0.20
2013-9-18,89,77,65,71,68,64,99,78,54,29.91,29.70,17,7,0,0.00
2013-9-19,92,75,63,70,67,63,99,77,47,29.84,29.64,16,5,0,1.12
2013-9-20,73,61,47,62,51,45,99,73,41,30.00,29.83,13,5,0,0.00
2013-9-21,76,58,41,53,47,41,99,71,33,29.99,28.90,6,1,3,0.07
2013-9-22,78,63,50,56,52,48,92,70,44,29.95,29.83,10,4,18,0.00
2013-9-23,77,64,53,55,52,48,89,66,40,29.90,29.74,13,7,23,0.00
2013-9-24,74,66,59,60,57,53,93,76,60,29.83,29.71,10,4,15,0.00
2013-9-25,81,64,53,63,52,-100,98,75,48,29.87,29.73,9,-40,16,0.00
2013-9-26,85,77,60,63,59,-100,96,56,42,29.87,29.78,25,0,28,0.00
2013-9-27,86,74,66,65,63,61,87,69,46,29.91,29.78,24,7,24,0.00
2013-9-28,71,70,68,63,62,61,86,75,74,29.79,29.72,15,7,18,0.16
2013-9-29,74,58,42,54,47,41,98,72,38,30.09,29.93,6,2,14,0.00
2013-9-30,74,56,62,59,34,-100,88,64,47,29.80,29.77,7,-144,13,0.00
2013-10-1,84,70,53,64,58,-100,96,71,42,29.92,29.80,13,-6,14,0.08
2013-10-2,83,71,61,70,64,59,96,81,57,29.95,29.81,16,3,19,0.00
2013-10-3,81,70,63,72,67,62,98,89,72,29.86,29.67,16,-1,20,0.98
2013-10-4,86,75,66,72,68,64,96,79,52,29.83,29.64,23,6,23,0.32
2013-10-5,66,52,45,64,39,-100,96,61,45,29.96,29.83,18,2,19,0.00
2013-10-6,52,47,42,47,42,35,94,83,66,29.98,29.78,22,6,22,0.02
2013-10-7,74,55,40,49,44,38,96,70,34,30.11,29.97,12,2,12,0.00
2013-10-8,75,61,47,50,47,44,89,63,37,30.06,29.96,21,6,23,0.00
2013-10-9,76,61,49,54,49,46,92,68,35,30.06,29.98,18,5,18,0.00
2013-10-10,78,63,50,58,52,47,92,69,44,30.03,29.83,22,5,22,0.00
2013-10-11,73,64,55,64,59,52,94,83,72,29.84,29.71,25,6,25,0.47
2013-10-12,69,56,44,58,42,32,93,67,27,30.24,29.81,16,3,16,0.00
2013-10-13,70,54,40,41,38,34,96,60,29,30.42,30.24,13,3,14,0.00
2013-10-14,70,57,47,58,44,35,93,64,37,30.29,29.80,25,8,25,0.09
2013-10-15,61,53,46,58,44,-100,94,74,51,30.04,29.78,21,3,21,0.04
2013-10-16,55,48,45,43,41,38,92,76,61,30.06,29.96,16,4,16,0.00
2013-10-17,66,51,38,44,40,-100,96,70,33,30.00,29.86,22,0,22,0.00
2013-10-18,48,41,34,40,35,29,96,80,50,30.12,30.00,20,4,21,0.00
2013-10-19,64,48,32,40,36,31,97,68,33,30.06,29.85,21,2,21,0.00
2013-10-20,66,53,42,46,41,36,89,67,43,29.95,29.76,15,3,16,0.00
2013-10-21,54,44,34,40,34,28,93,69,43,30.11,29.95,19,4,20,0.00
2013-10-22,54,46,36,46,38,32,87,75,58,30.10,29.86,28,8,28,0.00
2013-10-23,49,38,27,38,33,26,96,84,57,30.20,30.06,11,2,12,0.00
2013-10-24,49,38,27,37,29,-100,92,72,41,30.44,30.20,21,1,21,0.00
2013-10-25,56,41,24,33,28,22,94,64,34,30.46,30.13,18,3,19,0.00
2013-10-26,56,45,30,39,33,27,89,64,37,30.18,30.03,21,4,23,0.00
2013-10-27,62,44,26,37,31,24,95,65,35,30.16,29.91,19,4,20,0.00
2013-10-28,68,51,35,42,36,31,85,59,34,30.19,29.98,16,4,16,0.00
2013-10-29,58,53,45,58,50,37,99,90,59,30.19,29.93,19,7,20,0.37
2013-10-30,63,60,51,63,60,50,99,98,93,29.95,29.67,18,4,18,2.10
2013-10-31,51,47,44,51,45,40,98,94,85,29.69,29.51,16,5,16,0.24
2013-11-1,58,47,41,45,41,37,91,79,51,29.95,29.59,38,7,39,0.05
2013-11-2,55,45,38,42,38,34,94,77,48,30.17,29.95,19,7,20,0.01
2013-11-3,57,49,39,41,36,33,82,64,45,30.15,29.85,35,12,35,0.00
2013-11-4,58,53,47,48,46,40,89,77,63,30.09,29.86,24,6,24,0.01
2013-11-5,59,54,41,58,53,40,97,96,88,30.09,29.80,23,9,24,0.49
2013-11-6,47,38,31,42,35,30,96,90,67,30.32,29.86,26,11,27,0.00
2013-11-7,52,38,30,38,30,25,97,75,38,30.40,30.30,23,5,23,0.00
2013-11-8,64,50,30,38,32,26,84,53,33,30.34,28.68,39,9,39,0.00
2013-11-9,64,51,40,39,35,32,80,57,33,30.31,28.81,25,5,26,0.00
2013-11-10,54,44,31,35,31,27,88,61,37,30.43,30.19,13,5,15,0.00
2013-11-11,52,39,21,48,32,15,90,75,61,30.72,30.13,28,9,28,0.00
2013-11-12,32,22,13,16,12,9,88,68,38,30.93,30.71,20,4,20,0.00
2013-11-13,48,34,20,22,17,12,76,52,30,30.70,30.14,23,7,24,0.00
2013-11-14,56,44,36,31,27,22,64,52,36,30.14,29.92,21,6,21,0.00
2013-11-15,57,46,34,44,36,28,83,69,49,29.94,29.70,22,6,22,0.00
2013-11-16,70,60,49,58,54,44,92,81,61,29.70,29.34,39,12,39,0.20
2013-11-17,63,55,41,60,44,32,89,70,33,30.04,29.23,30,8,35,0.20
2013-11-18,55,42,32,36,31,27,93,68,36,30.28,30.04,16,4,16,0.00
2013-11-19,60,48,35,32,28,23,75,49,27,30.26,29.96,32,10,32,0.00
2013-11-20,50,43,39,38,35,25,92,75,40,29.98,29.84,27,10,29,0.46
2013-11-21,43,36,26,40,34,24,95,92,88,30.48,29.96,23,8,23,0.10
2013-11-22,27,23,19,24,20,16,93,88,83,30.68,30.47,16,7,21,0.00
2013-11-23,22,18,10,17,11,7,90,74,57,30.88,30.66,21,7,21,0.00
2013-11-24,27,19,9,15,11,6,88,71,50,30.84,30.36,16,5,16,0.00
2013-11-25,40,31,26,29,22,14,87,69,54,30.36,30.16,15,5,15,0.00
2013-11-26,36,27,17,28,20,10,89,73,49,30.44,30.19,28,9,28,0.00
2013-11-27,30,22,12,16,12,8,85,66,48,30.48,30.16,18,5,20,0.00
2013-11-28,36,28,20,23,19,15,83,69,53,30.54,30.15,23,6,23,0.00
2013-11-29,48,33,20,30,24,15,83,70,49,30.54,30.25,19,6,19,0.00
2013-11-30,52,40,31,36,31,26,93,71,53,30.25,30.08,13,3,13,0.00
2013-12-1,51,38,28,34,31,25,95,76,51,30.16,29.89,11,3,12,0.00
2013-12-2,59,44,33,42,37,29,95,78,46,29.89,29.57,16,5,16,0.00
2013-12-3,58,44,37,44,40,36,97,86,57,29.62,29.49,13,5,14,0.00
2013-12-4,38,30,19,37,28,13,98,92,76,30.10,29.55,28,10,28,0.01
2013-12-5,19,16,13,14,8,5,82,71,64,30.48,30.06,25,11,26,0.00
2013-12-6,16,11,5,5,1,-2,77,63,49,30.76,30.47,20,9,20,0.00
2013-12-7,19,10,-1,4,0,-6,82,65,42,30.84,30.48,21,7,21,0.00
2013-12-8,20,16,9,17,12,4,92,84,57,30.49,30.05,21,6,23,0.00
2013-12-9,10,4,-3,8,0,-8,91,81,65,30.46,30.21,14,4,14,0.00
2013-12-10,31,21,6,19,12,1,79,67,51,30.38,30.24,18,4,18,0.01
2013-12-11,27,14,0,23,7,-5,86,76,62,30.68,30.26,25,6,26,0.00
2013-12-12,36,21,4,23,13,-1,81,70,57,30.63,30.19,13,3,13,0.00
2013-12-13,36,30,24,32,27,18,97,89,71,30.19,29.90,21,6,21,0.01
2013-12-14,30,22,14,28,20,12,96,88,80,30.26,29.98,23,9,23,0.00
2013-12-15,37,28,17,30,24,15,94,85,71,30.24,30.00,9,3,12,0.00
2013-12-16,40,29,21,34,26,20,97,90,77,30.21,30.00,12,4,12,0.00
2013-12-17,43,32,23,32,24,19,96,75,45,30.31,30.19,23,5,24,0.00
2013-12-18,61,44,29,37,30,19,73,59,38,30.23,29.75,24,8,26,0.00
2013-12-19,54,43,34,47,38,32,94,83,68,29.77,29.65,16,5,16,0.00
2013-12-20,34,24,20,32,22,18,95,94,93,29.97,29.74,19,7,19,0.03
2013-12-21,25,23,20,23,21,18,95,93,91,29.96,29.73,20,6,20,0.00
2013-12-22,24,19,7,23,17,4,95,93,88,30.43,29.80,18,9,22,0.00
2013-12-23,8,3,-9,5,0,-12,89,86,83,30.70,30.42,19,6,19,0.00
2013-12-24,25,9,-11,24,5,-15,96,86,77,30.68,30.30,23,6,23,0.00
2013-12-25,36,28,19,31,25,17,96,90,79,30.37,30.28,18,5,19,0.03
2013-12-26,43,30,17,30,24,15,95,80,58,30.35,30.16,16,3,16,0.02
2013-12-27,49,35,21,32,27,19,95,74,48,30.34,30.16,13,4,13,0.00
2013-12-28,50,41,30,33,31,26,86,70,50,30.16,29.85,31,7,33,0.00
2013-12-29,30,13,7,25,5,-4,85,69,49,30.40,30.00,32,12,32,0.00
2013-12-30,27,17,5,19,6,-4,84,64,50,30.38,30.20,18,5,18,0.00
2013-12-31,49,25,12,31,18,8,89,75,45,30.37,30.05,21,6,21,0.00
2014-1-1,17,12,3,12,9,0,89,86,79,30.42,30.11,24,10,24,0.00
2014-1-2,11,2,-7,2,-3,-12,85,78,66,30.58,30.40,14,5,15,0.00